New Hampshire Logo

Manchester, NH Single Family Real Estate Listings

269 Total Real Estate Listings * Click on table heading to sort
Date Posted Property Type Style Address Price Living Area Lot Size Price/Sq Ft.
2017-12-11 Single Family Cape 26 Sherman Manchester, NH 03102 $249,900 1,352 sq. ft. 10,454 sq. ft. $185
2017-12-10 Single Family Ranch 247 Wilkins Manchester, NH 02103 $224,900 1,034 sq. ft. 19,166 sq. ft. $218
2017-12-08 Single Family Split Level 40 Worthley Manchester, NH 03102 $249,900 1,806 sq. ft. 12,197 sq. ft. $138
2017-12-07 Single Family Cape 20 South Lincoln Manchester, NH 03103 $219,000 1,163 sq. ft. 12,197 sq. ft. $188
2017-12-07 Single Family New Englander 365 Douglas St Manchester, NH 03102 $166,000 1,136 sq. ft. 15,682 sq. ft. $146
2017-12-07 Single Family Cape 47 Cotter Manchester, NH 03103 $239,000 1,515 sq. ft. 4,792 sq. ft. $158
2017-12-07 Single Family Bungalow; Ranch 209 Youville Street Manchester, NH 03102 $199,900 1,213 sq. ft. 10,019 sq. ft. $165
2017-12-07 Single Family Townhouse; Tri-Level 108 Riverwalk Manchester, NH 03101 $275,000 1,708 sq. ft. $161
2017-12-06 Single Family Colonial 354 Lake Manchester, NH 03103 $109,900 1,960 sq. ft. 85,377,600 sq. ft. $56
2017-12-06 Single Family Ranch 167 Cameron Manchester, NH 03103 $269,000 1,693 sq. ft. 14,810 sq. ft. $159
2017-12-06 Single Family Cape; Colonial; Contemporary 360 Belmont Manchester, NH 03103 $248,000 1,880 sq. ft. 5,227 sq. ft. $132
2017-12-05 Single Family Cape 376 Seames Manchester, NH 03103 $249,900 1,260 sq. ft. 6,534 sq. ft. $198
2017-12-04 Single Family Bungalow 3 Martin Manchester, NH 03103 $129,900 694 sq. ft. 3,920 sq. ft. $187
2017-12-04 Single Family Ranch 68 Mirror Manchester, NH 03104 $250,000 1,679 sq. ft. 6,098 sq. ft. $149
2017-12-04 Single Family New Englander; Victorian 47 Linden Manchester, NH 03104 $269,900 1,940 sq. ft. 3,920 sq. ft. $139
2017-12-04 Single Family Colonial 90 Sagamore Manchester, NH 03104 $200,000 2,256 sq. ft. 6,098 sq. ft. $89
2017-12-03 Single Family Bungalow; Ranch 50 Hillcrest Manchester, NH 03103 $209,900 1,063 sq. ft. 7,405 sq. ft. $197
2017-12-02 Single Family Bungalow 306 Amory Manchester, NH 03102 $155,000 1,661 sq. ft. 4,356 sq. ft. $93
2017-12-01 Single Family Bungalow; Cape 196 Dewey Manchester, NH 03103 $199,900 1,045 sq. ft. 6,098 sq. ft. $191
2017-12-01 Single Family Ranch 77 Porter Manchester, NH 03103 $185,000 832 sq. ft. 7,841 sq. ft. $222
2017-12-01 Single Family Colonial; Contemporary 55 Lady Slipper Manchester, NH 03109 $449,900 2,165 sq. ft. 13,068 sq. ft. $208
2017-12-01 Single Family Colonial 51 Brookfield Manchester, NH 03109 $479,900 2,954 sq. ft. 13,504 sq. ft. $162
2017-12-01 Single Family Ranch 300 Ward Manchester, NH 03104 $254,900 2,072 sq. ft. 16,553 sq. ft. $123
2017-12-01 Single Family Ranch 12 Lewis Manchester, NH 03102 $222,000 1,092 sq. ft. 9,583 sq. ft. $203
2017-11-30 Single Family Ranch 50 Martel Manchester, NH 03103 $254,900 2,512 sq. ft. 20,038 sq. ft. $101
2017-11-30 Single Family Colonial 540 Coral Manchester, NH 03104 $315,000 2,463 sq. ft. 12,197 sq. ft. $128
2017-11-30 Single Family New Englander 269 Mast Manchester, NH 03102 $249,900 1,537 sq. ft. 5,227 sq. ft. $163
2017-11-30 Single Family Condex 192 Kearsarge Manchester, NH 03102 $169,900 1,100 sq. ft. $154
2017-11-30 Single Family Ranch 104 Lodge Manchester, NH 03104 $237,000 1,622 sq. ft. 8,276 sq. ft. $146
2017-11-29 Single Family Farmhouse; New Englander 293 S Mammoth Manchester, NH 03109 $299,900 1,831 sq. ft. 23,522 sq. ft. $164
2017-11-29 Single Family Colonial; Garrison 441 Calef Manchester, NH 03103 $249,900 1,548 sq. ft. 4,792 sq. ft. $161
2017-11-29 Single Family Ranch 141 Hoyt Manchester, NH 03103 $227,900 2,424 sq. ft. 18,731 sq. ft. $94
2017-11-28 Single Family Colonial 115 Boynton Manchester, NH 03102 $249,900 1,665 sq. ft. 6,098 sq. ft. $150
2017-11-28 Single Family Cape 437 Calef Manchester, NH 03103 $187,900 1,344 sq. ft. 5,227 sq. ft. $140
2017-11-27 Single Family Colonial; Gambrel 467 Bridge Manchester, NH 03104 $220,000 1,600 sq. ft. 4,792 sq. ft. $138
2017-11-27 Single Family Ranch 101 Eugene Manchester, NH 03102 $249,900 1,380 sq. ft. 16,117 sq. ft. $181
2017-11-27 Single Family 245 West Hancock Manchester, NH 03102 $139,999 1,673 sq. ft. 5,663 sq. ft. $84
2017-11-27 Single Family Cape 53 Dutton Manchester, NH 03104 $89,900 1,313 sq. ft. 3,049 sq. ft. $68
2017-11-26 Single Family Bungalow 114 Young Manchester, NH 03103 $174,900 1,610 sq. ft. 6,098 sq. ft. $109
2017-11-25 Single Family New Englander 789 Harvard Manchester, NH 03103 $249,900 2,178 sq. ft. 6,534 sq. ft. $115
2017-11-24 Single Family New Englander 90 Essex Manchester, NH 03102 $171,500 994 sq. ft. 3,049 sq. ft. $173
2017-11-24 Single Family Ranch 187 Paquette Manchester, NH 03104 $259,900 1,802 sq. ft. 14,375 sq. ft. $144
2017-11-23 Single Family Colonial 512 Milton Manchester, NH 03104 $295,000 2,024 sq. ft. 7,841 sq. ft. $146
2017-11-23 Single Family Bungalow 39 Kimball Manchester, NH 03102 $234,900 2,112 sq. ft. 5,227 sq. ft. $111
2017-11-22 Single Family Split Level 142 Tilden Manchester, NH 03103 $289,900 1,188 sq. ft. 10,890 sq. ft. $244
2017-11-21 Single Family Gambrel 309 River Rd & 2 Elliot Manchester, NH 03104 $825,000 5,272 sq. ft. 20,909 sq. ft. $156
2017-11-21 Single Family New Englander 309 River Manchester, NH 03104 $495,000 3,205 sq. ft. 8,712 sq. ft. $154
2017-11-20 Single Family Colonial 178 Wildwood Manchester, NH 03103 $269,900 1,632 sq. ft. 7,841 sq. ft. $165
2017-11-20 Single Family Colonial 171 Whitford Manchester, NH 03104 $299,900 1,872 sq. ft. 13,068 sq. ft. $160
2017-11-20 Single Family Cape 85 Lockwood Manchester, NH 03102 $189,900 1,682 sq. ft. 6,098 sq. ft. $113
2017-11-19 Single Family Cape 2028 Lake Shore Manchester, NH 03109 $239,900 1,326 sq. ft. 17,860 sq. ft. $181
2017-11-18 Single Family Bungalow; Ranch 94 Belmont Manchester, NH 03103 $209,900 952 sq. ft. 6,970 sq. ft. $220
2017-11-18 Single Family Cape 52 Roy Manchester, NH 03103 $223,900 1,844 sq. ft. 7,841 sq. ft. $121
2017-11-18 Single Family New Englander 602 Green Manchester, NH 03103 $199,900 1,280 sq. ft. 4,792 sq. ft. $156
2017-11-17 Single Family Bungalow 75 Hamblet Manchester, NH 03103 $179,900 1,383 sq. ft. 4,356 sq. ft. $130
2017-11-17 Single Family Ranch 55 Checkerberry Manchester, NH 03102 $485,000 3,082 sq. ft. $157
2017-11-17 Single Family Colonial 241 Tennyson Manchester, NH 03104 $374,900 2,357 sq. ft. 37,026 sq. ft. $159
2017-11-16 Single Family New Englander 318 E. High Manchester, NH 03104 $229,900 1,810 sq. ft. 6,098 sq. ft. $127
2017-11-15 Single Family Raised Ranch 272 Medford Manchester, NH 03109 $229,000 1,704 sq. ft. 9,583 sq. ft. $134
2017-11-14 Single Family New Englander 312 Goffstown Manchester, NH 03102 $220,000 1,865 sq. ft. 14,375 sq. ft. $118
2017-11-14 Single Family Cape 52 Overland Manchester, NH 03103 $219,000 1,232 sq. ft. 5,663 sq. ft. $178
2017-11-12 Single Family New Englander 479 Spruce Manchester, NH 03103 $174,900 1,354 sq. ft. 15,682 sq. ft. $129
2017-11-12 Single Family Ranch 26 Champlain Manchester, NH 03102 $289,900 1,399 sq. ft. 24,829 sq. ft. $207
2017-11-10 Single Family Ranch Unit 62 Springwood Manchester, NH 03102 $368,500 1,767 sq. ft. $209
2017-11-09 Single Family Colonial 69 Greenleaf Manchester, NH 03103 $259,900 1,768 sq. ft. 7,405 sq. ft. $147
2017-11-09 Single Family Split Level 259 Brickett Manchester, NH 03109 $249,900 1,572 sq. ft. 53,143 sq. ft. $159
2017-11-09 Single Family Ranch 95 Springwood Manchester, NH 03102 $369,900 1,620 sq. ft. $228
2017-11-09 Single Family Ranch 25 Crowley Manchester, NH 03103 $225,000 1,300 sq. ft. 6,534 sq. ft. $173
2017-11-08 Single Family Colonial 10 Hedgerose Manchester, NH 03102 $388,950 2,264 sq. ft. $172
2017-11-08 Single Family Colonial; Contemporary 1700 Wellington Rd Manchester, NH 03104 $529,900 2,848 sq. ft. 116,741 sq. ft. $186
2017-11-08 Single Family Ranch 115 Springwood Manchester, NH 03102 $354,784 1,484 sq. ft. $239
2017-11-08 Single Family Ranch 326 Sewall Street Manchester, NH 03103 $234,900 1,648 sq. ft. 7,841 sq. ft. $143
2017-11-08 Single Family Ranch 255 Phillip Manchester, NH 03102 $219,900 2,136 sq. ft. 21,780 sq. ft. $103
2017-11-08 Single Family Colonial 75 Gerard Manchester, NH 03104 $265,000 1,972 sq. ft. 10,019 sq. ft. $134
2017-11-07 Single Family Ranch 980 Smyth Manchester, NH 03104 $239,900 1,572 sq. ft. 54,450 sq. ft. $153
2017-11-05 Single Family Cape 16 Circuit Manchester, NH 03103 $215,000 1,008 sq. ft. 6,534 sq. ft. $213
2017-11-05 Single Family Gambrel 50 Donahue Manchester, NH 03103 $229,900 1,985 sq. ft. 10,454 sq. ft. $116
2017-11-04 Single Family Colonial 5 South Ridge Manchester, NH 03109 $417,000 2,563 sq. ft. 40,075 sq. ft. $163
2017-11-04 Single Family Cape 128 Jewett Manchester, NH 03103 $169,900 1,177 sq. ft. 3,049 sq. ft. $144
2017-11-03 Single Family Ranch 221 Elgin Manchester, NH 03104 $194,900 871 sq. ft. 4,792 sq. ft. $224
2017-11-03 Single Family Ranch 295 Hillhaven Manchester, NH 03104 $339,900 3,594 sq. ft. 43,560 sq. ft. $95
2017-11-03 Single Family Ranch 151 Glenwood Manchester, NH 03102 $218,000 2,106 sq. ft. 10,019 sq. ft. $104
2017-11-03 Single Family Contemporary; Ranch 76 Brae Burn Dr Manchester, NH 03104 $369,000 2,792 sq. ft. 26,136 sq. ft. $132
2017-11-02 Single Family Ranch 52 Ellis Manchester, NH 03109 $239,900 1,160 sq. ft. 8,712 sq. ft. $207
2017-11-02 Single Family Gambrel; New Englander 99 Hudson Manchester, NH 03103 $227,900 1,630 sq. ft. 6,098 sq. ft. $140
2017-11-02 Single Family Contemporary; Modern Architecture 205 Lakeview Manchester, NH 03104 $359,500 2,629 sq. ft. 32,234 sq. ft. $137
2017-11-02 Single Family Colonial 734 Wellington Hill Manchester, NH 03104 $364,500 3,060 sq. ft. 7,405 sq. ft. $119
2017-11-01 Single Family Bungalow 630 Amherst Manchester, NH 03104 $239,900 1,254 sq. ft. 6,534 sq. ft. $191
2017-11-01 Single Family Ranch 60 Flint Manchester, NH 03103 $219,900 896 sq. ft. 6,534 sq. ft. $245
2017-11-01 Single Family Cape 1022 Belmont Manchester, NH 03104 $259,900 2,184 sq. ft. 13,939 sq. ft. $119
2017-11-01 Single Family Ranch 77 Cedar Hill Manchester, NH 03109 $239,900 1,952 sq. ft. 14,810 sq. ft. $123
2017-10-31 Single Family Cape 64 Overland Manchester, NH 03103 $225,000 1,228 sq. ft. 11,761 sq. ft. $183
2017-10-31 Single Family Cape 643 S Main Manchester, NH 03102 $215,000 1,760 sq. ft. 5,227 sq. ft. $122
2017-10-29 Single Family Contemporary; Multi-Level 110 Crestview Manchester, NH 03104 $319,000 2,632 sq. ft. 12,632 sq. ft. $121
2017-10-29 Single Family Farmhouse; New Englander 19 Stockholm Manchester, NH 03104 $229,900 1,954 sq. ft. 5,663 sq. ft. $118
2017-10-29 Single Family Split Level 111 Morse Manchester, NH 03104 $299,000 1,846 sq. ft. 51,401 sq. ft. $162
2017-10-28 Single Family Colonial 56 Mammoth Manchester, NH 03109 $209,900 1,560 sq. ft. 30,492 sq. ft. $135
2017-10-28 Single Family Cape 385 Holly Manchester, NH 03103 $215,900 1,176 sq. ft. 5,663 sq. ft. $184
2017-10-28 Single Family New Englander 27 Sterling Manchester, NH 03103 $185,000 1,412 sq. ft. 3,920 sq. ft. $131
2017-10-27 Single Family Cape 154 Oneida Manchester, NH 03102 $179,900 1,088 sq. ft. 7,841 sq. ft. $165
2017-10-27 Single Family Ranch 45 Checkerberry Manchester, NH 03102 $495,000 3,602 sq. ft. $137
2017-10-27 Single Family Colonial 19 Rosewood Manchester, NH 03103 $319,900 1,992 sq. ft. 20,909 sq. ft. $161
2017-10-27 Single Family New Englander 88 Riddle Manchester, NH 03102 $209,900 2,162 sq. ft. 8,276 sq. ft. $97
2017-10-26 Single Family Cape 643 Mast Manchester, NH 03102 $225,000 1,942 sq. ft. 10,890 sq. ft. $116
2017-10-25 Single Family Ranch 157 Norcross Manchester, NH 03109 $150,000 864 sq. ft. 6,534 sq. ft. $174
2017-10-24 Single Family Cape 89 Sheridan Manchester, NH 03102 $249,900 1,450 sq. ft. 6,970 sq. ft. $172
2017-10-24 Single Family New Englander 442 Mammoth Manchester, NH 03109 $187,500 1,338 sq. ft. 6,098 sq. ft. $140
2017-10-23 Single Family Ranch 18 Provencher Manchester, NH 03102 $189,900 896 sq. ft. 6,098 sq. ft. $212
2017-10-23 Single Family New Englander 209 Bowman Manchester, NH 03102 $129,900 768 sq. ft. 1,307 sq. ft. $169
2017-10-20 Single Family Cape 171 Fox Manchester, NH 03103 $269,900 2,112 sq. ft. 7,405 sq. ft. $128
2017-10-20 Single Family Split Level 1900 Lake Shore Manchester, NH 03109 $235,000 1,738 sq. ft. 26,572 sq. ft. $135
2017-10-19 Single Family Contemporary 158 Pheasant Manchester, NH 03109 $289,000 1,586 sq. ft. 30,056 sq. ft. $182
2017-10-19 Single Family Victorian 25 Dearborn Manchester, NH 03103 $131,900 1,426 sq. ft. 5,227 sq. ft. $92
2017-10-19 Single Family Cape 101 Springdale Manchester, NH 03103 $179,900 1,142 sq. ft. 4,792 sq. ft. $158
2017-10-19 Single Family Ranch 25 Dwight Manchester, NH 03104 $225,000 1,340 sq. ft. 12,197 sq. ft. $168
2017-10-19 Single Family Cape 129 Almond Manchester, NH 03102 $275,000 2,236 sq. ft. 217,800,000 sq. ft. $123
2017-10-19 Single Family Bungalow 162 Sylvester Manchester, NH 03102 $219,900 2,270 sq. ft. 14,375 sq. ft. $97
2017-10-19 Single Family New Englander 78 Ashland Manchester, NH 03104 $144,900 1,620 sq. ft. 5,663 sq. ft. $89
2017-10-19 Single Family Colonial 103 Bismark Manchester, NH 03102 $245,000 2,296 sq. ft. 6,098 sq. ft. $107
2017-10-19 Single Family Cape 12 Crowley Manchester, NH 03103 $199,900 1,314 sq. ft. 4,356 sq. ft. $152
2017-10-18 Single Family Cape 171 Pickering Street Manchester, NH 03104 $269,900 2,493 sq. ft. 45,738 sq. ft. $108
2017-10-18 Single Family Cape 593 Lincoln Manchester, NH 03104 $135,000 1,110 sq. ft. 1,742 sq. ft. $122
2017-10-18 Single Family Ranch 125 Wolcott Manchester, NH 03103 $185,900 1,594 sq. ft. 6,970 sq. ft. $117
2017-10-18 Single Family Bungalow 237 Peabody Manchester, NH 03109 $140,000 940 sq. ft. 7,405 sq. ft. $149
2017-10-17 Single Family Colonial Unit R Crosswood Manchester, NH 03102 $347,400 1,574 sq. ft. 622,037 sq. ft. $221
2017-10-16 Single Family Split Level; Split Entry 25 Estate Drive Manchester, NH 03104 $249,900 1,130 sq. ft. 7,405 sq. ft. $221
2017-10-16 Single Family Ranch 461 Varney Manchester, NH 03102 $200,000 1,124 sq. ft. 9,148 sq. ft. $178
2017-10-16 Single Family Colonial; New Englander 64 Taylor Manchester, NH 03103 $229,900 1,944 sq. ft. 5,227 sq. ft. $118
2017-10-15 Single Family Cape 51 Murphy Manchester, NH 03103 $219,900 1,296 sq. ft. 7,841 sq. ft. $170
2017-10-14 Single Family Colonial 198 Megan Manchester, NH 03103 $245,000 1,632 sq. ft. 8,276 sq. ft. $150
2017-10-14 Single Family New Englander 569 Merrimack Manchester, NH 03103 $269,000 1,854 sq. ft. 10,454 sq. ft. $145
2017-10-14 Single Family Ranch 401 South Jewett Manchester, NH 03103 $194,500 1,608 sq. ft. 7,405 sq. ft. $121
2017-10-14 Single Family Victorian 935 Union Manchester, NH 03104 $249,900 2,137 sq. ft. 6,970 sq. ft. $117
2017-10-13 Single Family Split Entry 383 Pickering Manchester, NH 03104 $299,000 1,532 sq. ft. 8,276 sq. ft. $195
2017-10-12 Single Family Cape 235 Reed Manchester, NH 03102 $244,900 1,810 sq. ft. 7,405 sq. ft. $135
2017-10-12 Single Family Ranch 190 Morse Manchester, NH 03104 $179,900 996 sq. ft. 36,590 sq. ft. $181
2017-10-11 Single Family Cape 49 Dewey Manchester, NH 03103 $239,900 2,340 sq. ft. 4,792 sq. ft. $103
2017-10-06 Single Family Ranch 601 Cilley Manchester, NH 03103 $199,900 1,380 sq. ft. 5,663 sq. ft. $145
2017-10-06 Single Family Ranch 95 Constant Manchester, NH 03103 $224,900 1,120 sq. ft. 6,534 sq. ft. $201
2017-10-06 Single Family Colonial 105 Prout Manchester, NH 03103 $159,900 1,498 sq. ft. 3,049 sq. ft. $107
2017-10-06 Single Family Cape; New Englander 15 Mammoth Manchester, NH 03109 $219,900 1,690 sq. ft. 13,504 sq. ft. $130
2017-10-05 Single Family Ranch 814 Goffstown Manchester, NH 03102 $245,000 2,392 sq. ft. 24,829 sq. ft. $102
2017-10-04 Single Family Colonial 14 Goebel Manchester, NH 03103 $329,900 2,885 sq. ft. 7,405 sq. ft. $114
2017-10-04 Single Family Cape 140 Mission Manchester, NH 03104 $219,900 1,396 sq. ft. 10,019 sq. ft. $158
2017-10-03 Single Family New Englander 31 Vernon Manchester, NH 03101 $258,000 1,610 sq. ft. 7,405 sq. ft. $160
2017-10-03 Single Family Cape 912 Montgomery Manchester, NH 03102 $404,900 2,501 sq. ft. 17,860 sq. ft. $162
2017-10-02 Single Family Cape 231 Morey Manchester, NH 03103 $219,900 1,560 sq. ft. 5,227 sq. ft. $141
2017-10-02 Single Family Colonial 1-8 Glen Forest Manchester, NH 03109 $375,700 2,176 sq. ft. 28,750 sq. ft. $173
2017-09-30 Single Family Ranch 99 Huntington Ave Manchester, NH 03109 $179,900 960 sq. ft. 7,841 sq. ft. $187
2017-09-29 Single Family Modified; Ranch 151 Lucas Manchester, NH 03109 $299,999 2,588 sq. ft. 53,143 sq. ft. $116
2017-09-28 Single Family New Englander 283 Putnam Manchester, NH 03102 $229,900 1,871 sq. ft. 10,019 sq. ft. $123
2017-09-28 Single Family Contemporary; Victorian 705 Hall Manchester, NH 03104 $179,999 1,549 sq. ft. 4,792 sq. ft. $116
2017-09-27 Single Family Bungalow 316 Amory Manchester, NH 03102 $184,900 1,713 sq. ft. 4,792 sq. ft. $108
2017-09-27 Single Family New Englander 103 St James Manchester, NH 03102 $217,900 1,078 sq. ft. $202
2017-09-26 Single Family Bungalow 752 Hanover Manchester, NH 03104 $184,900 1,258 sq. ft. 4,792 sq. ft. $147
2017-09-22 Single Family Bungalow; Ranch 39 Candia Manchester, NH 03109 $200,000 1,358 sq. ft. 5,227 sq. ft. $147
2017-09-22 Single Family Cape; Contemporary 240 Karatzas Manchester, NH 03104 $429,000 2,443 sq. ft. 51,401 sq. ft. $176
2017-09-22 Single Family New Englander 1011 Somerville Manchester, NH 03103 $229,900 1,569 sq. ft. 6,970 sq. ft. $147
2017-09-21 Single Family New Englander 59 Hillcrest Manchester, NH 03103 $209,900 1,394 sq. ft. 4,356 sq. ft. $151
2017-09-21 Single Family Colonial 67 Lady Slipper Manchester, NH 03109 $419,900 2,354 sq. ft. 13,068 sq. ft. $178
2017-09-20 Single Family Raised Ranch 350 Front Manchester, NH 03102 $175,000 1,530 sq. ft. 5,663 sq. ft. $114
2017-09-20 Single Family New Englander 314 Bridge Manchester, NH 03104 $155,000 1,294 sq. ft. 4,356 sq. ft. $120
2017-09-19 Single Family Cape 119 Biron Manchester, NH 03102 $179,900 1,100 sq. ft. 5,227 sq. ft. $164
2017-09-18 Single Family Contemporary; Detached; Multi-Level; Walkout Lower Level 54 Madison Manchester, NH 03109 $379,900 2,991 sq. ft. $127
2017-09-18 Single Family New Englander 131 Baker Manchester, NH 03103 $249,000 2,211 sq. ft. 9,583 sq. ft. $113
2017-09-17 Single Family Colonial 600 South Main Manchester, NH 03102 $359,900 2,050 sq. ft. 15,246 sq. ft. $176
2017-09-14 Single Family Colonial 48 Carpenter Manchester, NH 03104 $599,900 5,839 sq. ft. 18,731 sq. ft. $103
2017-09-13 Single Family Cape 78 Armand Manchester, NH 03103 $184,900 1,008 sq. ft. 4,356 sq. ft. $183
2017-09-13 Single Family Cape 200 Boynton Manchester, NH 03102 $189,900 1,380 sq. ft. 5,663 sq. ft. $138
2017-09-12 Single Family New Englander 78 Laurel Manchester, NH 03103 $139,990 1,376 sq. ft. 3,049 sq. ft. $102
2017-09-12 Single Family Colonial; New Englander 321 Laurel Manchester, NH 03103 $130,000 2,147 sq. ft. 3,049 sq. ft. $61
2017-09-11 Single Family Cape 187 Peabody Manchester, NH 03109 $224,900 1,304 sq. ft. 8,712 sq. ft. $172
2017-09-11 Single Family Colonial 191 Whitford Manchester, NH 03104 $299,900 1,836 sq. ft. 30,492 sq. ft. $163
2017-09-08 Single Family Bungalow 660 Montgomery Manchester, NH 03102 $256,900 2,151 sq. ft. 6,534 sq. ft. $119
2017-09-08 Single Family Cape 40 Cass Manchester, NH 03103 $210,000 1,300 sq. ft. 9,583 sq. ft. $162
2017-09-08 Single Family Colonial 270 Poplar Manchester, NH 03104 $494,500 3,696 sq. ft. 14,810 sq. ft. $134
2017-09-07 Single Family New Englander 8 Warren Manchester, NH 03104 $129,900 633 sq. ft. 1,742 sq. ft. $205
2017-09-07 Single Family New Englander 738 Hall Manchester, NH 03104 $210,000 1,593 sq. ft. 3,049 sq. ft. $132
2017-09-06 Single Family Colonial 62 Shepherd Rd Manchester, NH 03104 $399,900 2,428 sq. ft. 8,712 sq. ft. $165
2017-09-06 Single Family Colonial 332 Glen Forest Manchester, NH 03109 $370,458 1,950 sq. ft. 44,431 sq. ft. $190
2017-09-06 Single Family Colonial 3R Glen Forest Drive Manchester, NH 03109 $390,900 2,406 sq. ft. 14,375 sq. ft. $162
2017-09-05 Single Family Colonial 383 S Mammoth Manchester, NH 03109 $299,900 1,664 sq. ft. 10,454 sq. ft. $180
2017-09-05 Single Family New Englander 12 Linden Manchester, NH 03104 $169,900 1,306 sq. ft. 5,663 sq. ft. $130
2017-09-03 Single Family Colonial 445 Ray Manchester, NH 03104 $309,900 2,040 sq. ft. 9,148 sq. ft. $152
2017-09-02 Single Family Colonial 307 Laurel Manchester, NH 03103 $219,000 1,784 sq. ft. 5,227 sq. ft. $123
2017-09-01 Single Family Colonial 596 South Main Manchester, NH 03102 $359,900 2,050 sq. ft. 15,246 sq. ft. $176
2017-08-31 Single Family Cape 60 Gurtner St Manchester, NH 03104 $269,000 1,756 sq. ft. 8,276 sq. ft. $153
2017-08-31 Single Family Cape 130 Erie Manchester, NH 03102 $299,950 2,132 sq. ft. 10,454 sq. ft. $141
2017-08-31 Single Family Colonial 169 Cushing Manchester, NH 03103 $299,900 1,700 sq. ft. 9,583 sq. ft. $176
2017-08-30 Single Family New Englander 37 A Manchester, NH 03102 $179,900 1,224 sq. ft. 5,227 sq. ft. $147
2017-08-30 Single Family Ranch 385 Youville Manchester, NH 03102 $374,500 2,650 sq. ft. 19,602 sq. ft. $141
2017-08-28 Single Family Bungalow 501 Kelley Manchester, NH 03102 $179,900 1,603 sq. ft. 4,356 sq. ft. $112
2017-08-28 Single Family Split Level 558 Amherst Manchester, NH 03104 $180,000 1,936 sq. ft. 5,227 sq. ft. $93
2017-08-25 Single Family Ranch 90 Sherburne Manchester, NH 03104 $220,000 1,056 sq. ft. 6,098 sq. ft. $208
2017-08-22 Single Family New Englander 65 Varney Manchester, NH 03102 $145,000 1,312 sq. ft. 5,227 sq. ft. $111
2017-08-21 Single Family New Englander 427 Holly Manchester, NH 03103 $259,900 1,347 sq. ft. 8,276 sq. ft. $193
2017-08-19 Single Family Colonial; Condex; Victorian 276 Orange Manchester, NH 03104 $199,900 2,361 sq. ft. $85
2017-08-18 Single Family Ranch 524 Greeley Manchester, NH 03102 $219,900 1,464 sq. ft. 26,572 sq. ft. $150
2017-08-18 Single Family Colonial; Condex; Victorian 278 Orange Manchester, NH 03104 $219,900 3,653 sq. ft. $60
2017-08-18 Single Family Cape 12 Ray Manchester, NH 03104 $229,000 1,105 sq. ft. 4,356 sq. ft. $207
2017-08-17 Single Family New Englander 99 Prout Manchester, NH 03103 $179,900 1,165 sq. ft. 2,614 sq. ft. $154
2017-08-17 Single Family Bungalow 142 Robinson Manchester, NH 03104 $169,900 1,085 sq. ft. 11,761 sq. ft. $157
2017-08-17 Single Family Colonial 349 Paquette Manchester, NH 03104 $519,000 2,808 sq. ft. 20,038 sq. ft. $185
2017-08-16 Single Family Cape 61 Renard Manchester, NH 03109 $219,900 1,428 sq. ft. 7,405 sq. ft. $154
2017-08-16 Single Family Colonial 76 Gosselin Manchester, NH 03103 $269,900 1,700 sq. ft. 19,602 sq. ft. $159
2017-08-15 Single Family New Englander 611 Howe Manchester, NH 03103 $249,900 1,338 sq. ft. 7,405 sq. ft. $187
2017-08-15 Single Family Cape 58 Arnold Manchester, NH 03102 $249,900 1,442 sq. ft. 18,731 sq. ft. $173
2017-08-12 Single Family Split Level 75 South Fremont Manchester, NH 03103 $229,700 1,682 sq. ft. 7,405 sq. ft. $137
2017-08-11 Single Family Colonial 54 Readey Manchester, NH 03104 $309,900 2,176 sq. ft. 9,148 sq. ft. $142
2017-08-08 Single Family Colonial 97 Dearborn Manchester, NH 03103 $248,000 2,102 sq. ft. 3,920 sq. ft. $118
2017-08-04 Single Family Bungalow 173 Maplehurst Manchester, NH 03104 $100,000 3,398 sq. ft. 13,068 sq. ft. $29
2017-08-03 Single Family Colonial 98 Aladdin Manchester, NH 03104 $315,900 2,684 sq. ft. 10,019 sq. ft. $118
2017-07-28 Single Family Bungalow 512 Coolidge Manchester, NH 03102 $199,900 2,660 sq. ft. 5,663 sq. ft. $75
2017-07-28 Single Family Colonial LOT 5 Glen Forest Manchester, NH 03109 $392,800 2,784 sq. ft. 42,253 sq. ft. $141
2017-07-28 Single Family Colonial LOT 7 Glen Forest Manchester, NH 03109 $406,410 2,249 sq. ft. 33,541 sq. ft. $181
2017-07-28 Single Family Colonial LOT 6 Glen Forest Manchester, NH 03109 $364,275 2,176 sq. ft. 28,750 sq. ft. $167
2017-07-26 Single Family Colonial; Victorian 346 Walnut Manchester, NH 03104 $300,000 2,646 sq. ft. 5,227 sq. ft. $113
2017-07-26 Single Family Raised Ranch 407 Oak Manchester, NH 03104 $209,900 1,064 sq. ft. 10,019 sq. ft. $197
2017-07-25 Single Family Cape 232 Boynton Manchester, NH 03102 $209,900 1,080 sq. ft. 14,375 sq. ft. $194
2017-07-25 Single Family Bungalow 72 Gove Manchester, NH 03102 $234,900 1,324 sq. ft. 18,731 sq. ft. $177
2017-07-24 Single Family New Englander 1024 Valley Manchester, NH 03103 $169,900 1,682 sq. ft. 4,792 sq. ft. $101
2017-07-21 Single Family Gambrel 176 Wilson Street Manchester, NH 03103 $189,000 2,920 sq. ft. 6,098 sq. ft. $65
2017-07-21 Single Family Cape 88 Wason Manchester, NH 03102 $284,900 2,964 sq. ft. 9,583 sq. ft. $96
2017-07-20 Single Family Split Level 940 Hanover Manchester, NH 03103 $279,900 1,548 sq. ft. 10,019 sq. ft. $181
2017-07-19 Single Family Cape 349 Campbell Manchester, NH 03104 $349,900 2,423 sq. ft. 12,197 sq. ft. $144
2017-07-17 Single Family Raised Ranch; Split Level 148 Dave St Manchester, NH 03104 $229,900 2,064 sq. ft. 8,712 sq. ft. $111
2017-07-17 Single Family Ranch 16 Memorial Manchester, NH 03103 $240,000 2,170 sq. ft. 9,148 sq. ft. $111
2017-07-16 Single Family Colonial 252 Orange Manchester, NH 03104 $309,900 1,584 sq. ft. 8,276 sq. ft. $196
2017-07-13 Single Family Colonial; Craftsman 32 Readey Manchester, NH 03104 $549,900 3,812 sq. ft. 19,602 sq. ft. $144
2017-07-12 Single Family Cape 101 Elgin Manchester, NH 03104 $274,900 2,747 sq. ft. 11,326 sq. ft. $100
2017-07-11 Single Family Colonial Unit M Crosswood Manchester, NH 03102 $339,900 1,486 sq. ft. $229
2017-07-05 Single Family Cape 201 S. Mammoth Manchester, NH 03109 $220,000 1,236 sq. ft. 37,462 sq. ft. $178
2017-06-29 Single Family 675 & 685 Coolidge Manchester, NH 03105 $1,250,000 2,400 sq. ft. 10,890 sq. ft. $521
2017-06-29 Single Family Cape 65 Jonathan Manchester, NH 03104 $229,400 2,052 sq. ft. 7,405 sq. ft. $112
2017-06-28 Single Family Colonial 640 Upper Central Manchester, NH 03103 $239,900 1,784 sq. ft. 7,841 sq. ft. $134
2017-06-28 Single Family Bungalow 32 Arbutus Manchester, NH 03109 $114,900 847 sq. ft. 5,663 sq. ft. $136
2017-06-26 Single Family Cape 329 Reed Manchester, NH 03102 $209,500 1,408 sq. ft. 7,405 sq. ft. $149
2017-06-26 Single Family Colonial 28 Lisa Manchester, NH 03103 $284,900 2,570 sq. ft. 9,148 sq. ft. $111
2017-06-23 Single Family Split Level 80 Barrett Manchester, NH 03104 $349,900 2,540 sq. ft. 10,019 sq. ft. $138
2017-06-20 Single Family Colonial; Garrison 225 Crosbie Manchester, NH 03104 $274,900 1,952 sq. ft. 7,405 sq. ft. $141
2017-06-16 Single Family Cape 115 Flint Manchester, NH 03103 $189,900 941 sq. ft. 4,792 sq. ft. $202
2017-06-14 Single Family Walkout Lower Level 1258 Union Manchester, NH 03104 $1,500,000 5,490 sq. ft. 33,541 sq. ft. $273
2017-06-08 Single Family Colonial 62 Charlotte Manchester, NH 03103 $289,000 2,388 sq. ft. 6,098 sq. ft. $121
2017-06-02 Single Family Bungalow 192 Arah Manchester, NH 03104 $249,000 1,623 sq. ft. 29,621 sq. ft. $153
2017-05-29 Single Family Antique 329 River Manchester, NH 03104 $424,900 4,542 sq. ft. 18,731 sq. ft. $94
2017-05-26 Single Family Ranch 1112 Union Manchester, NH 03104 $850,000 5,648 sq. ft. 25,700 sq. ft. $150
2017-05-25 Single Family Victorian 25 Monroe Manchester, NH 03104 $314,900 2,763 sq. ft. 16,988 sq. ft. $114
2017-05-18 Single Family Craftsman 22 Readey Manchester, NH 03104 $250,000 1,730 sq. ft. 4,792 sq. ft. $145
2017-05-11 Single Family Tri-Level 1085 Bridge Manchester, NH 03104 $299,900 3,136 sq. ft. 17,424 sq. ft. $96
2017-05-02 Single Family Cape; Carriage; Chalet; Colonial 271 Bodwell (Brick House) Manchester, NH 03109 $229,900 1,945 sq. ft. 14,810 sq. ft. $118
2017-05-01 Single Family Colonial 135 Filips Glen Manchester, NH 03109 $385,000 3,247 sq. ft. 12,197 sq. ft. $119
2017-04-30 Single Family Colonial 206 Thornton Manchester, NH 03102 $169,000 1,590 sq. ft. 4,792 sq. ft. $106
2017-04-05 Single Family Cape 454 Smyth Manchester, NH 03104 $249,900 1,926 sq. ft. 10,454 sq. ft. $130
2017-03-13 Single Family Ranch 598 South Willow Manchester, NH 03103 $275,000 1,888 sq. ft. 5,227 sq. ft. $146
2017-03-10 Single Family Cape 82 Sherburne Manchester, NH 03104 $222,000 1,101 sq. ft. 4,356 sq. ft. $202
2017-02-16 Single Family Colonial 36 Covington Manchester, NH 03104 $389,900 1,743 sq. ft. 15,246 sq. ft. $224
2017-02-08 Single Family Colonial 5 Covington Manchester, NH 03104 $384,900 2,124 sq. ft. 9,148 sq. ft. $181
2016-10-26 Single Family Colonial 17 Lavender Lane Manchester, NH 03109 $349,900 2,125 sq. ft. 7,405 sq. ft. $165
2016-10-26 Single Family Colonial 29 Lavender Manchester, NH 03109 $349,900 1,908 sq. ft. 18,295 sq. ft. $183
2016-09-21 Single Family Ranch 115 Springwood Manchester, NH 03102 $348,500 1,484 sq. ft. $235
2016-09-21 Single Family Ranch 97 Springwood Manchester, NH 03102 $368,500 1,767 sq. ft. $209
2016-09-07 Single Family Colonial Unit 22 Countryside Manchester, NH 03102 $329,900 1,486 sq. ft. $222
2016-09-07 Single Family Colonial Unit 18 Crosswood Manchester, NH 03102 $342,400 1,574 sq. ft. 622,037 sq. ft. $218
2016-09-07 Single Family Colonial Unit 17 Crosswood Manchester, NH 03102 $330,400 1,426 sq. ft. 622,037 sq. ft. $232
2016-09-07 Single Family Colonial Unit H Crosswood Manchester, NH 03102 $329,900 1,448 sq. ft. 622,037 sq. ft. $228
2016-09-07 Single Family Colonial Unit 21 Countryside Manchester, NH 03102 $329,900 1,486 sq. ft. $222
2016-08-22 Single Family Colonial Unit 16 Crosswood Manchester, NH 03102 $327,900 1,450 sq. ft. $226
2016-06-17 Single Family Bungalow; Ranch 40 Lafayette Manchester, NH 03102 $209,900 1,110 sq. ft. 4,792 sq. ft. $189
2015-03-10 Single Family Colonial 51 Redwood Manchester, NH 03102 $334,836 1,486 sq. ft. $225